TimeCDT,TemperatureF,Dew PointF,Humidity,Sea Level PressureIn,VisibilityMPH,Wind Direction,Wind SpeedMPH,Gust SpeedMPH,PrecipitationIn,Events,Conditions,WindDirDegrees,DateUTC
12:15 AM,80.6,73.0,78,29.93,10.0,Calm,Calm,-,N/A,Rain,Light Rain,0,2013-07-08 05:15:00
12:35 AM,78.8,75.0,88,29.96,7.0,SW,10.4,-,N/A,Rain-Thunderstorm,Thunderstorms and Rain,230,2013-07-08 05:35:00
12:55 AM,77.2,70.3,79,29.94,5.0,South,6.9,-,N/A,Rain-Thunderstorm,Light Thunderstorms and Rain,180,2013-07-08 05:55:00
1:15 AM,75.9,73.0,91,29.92,10.0,ENE,4.6,-,N/A,Rain,Light Rain,60,2013-07-08 06:15:00
1:35 AM,75.4,73.0,92,29.91,10.0,NNE,5.8,-,N/A,Rain,Light Rain,30,2013-07-08 06:35:00
1:55 AM,74.8,73.4,95,29.91,10.0,Calm,Calm,-,N/A,,Clear,0,2013-07-08 06:55:00
2:15 AM,75.0,73.8,96,29.92,7.0,SW,3.5,-,N/A,,Clear,220,2013-07-08 07:15:00
2:35 AM,74.8,74.3,98,29.93,7.0,Calm,Calm,-,N/A,,Clear,0,2013-07-08 07:35:00
2:55 AM,75.0,74.5,98,29.92,5.0,Calm,Calm,-,N/A,,Clear,0,2013-07-08 07:55:00
3:15 AM,75.0,74.7,99,29.92,5.0,Calm,Calm,-,N/A,,Clear,0,2013-07-08 08:15:00
3:35 AM,75.2,74.5,98,29.92,5.0,Calm,Calm,-,N/A,,Clear,0,2013-07-08 08:35:00
3:55 AM,75.0,74.7,99,29.92,5.0,Calm,Calm,-,N/A,,Clear,0,2013-07-08 08:55:00
4:15 AM,75.0,74.3,98,29.92,5.0,North,3.5,-,N/A,,Clear,360,2013-07-08 09:15:00
4:35 AM,74.8,73.6,96,29.93,5.0,Calm,Calm,-,N/A,,Clear,0,2013-07-08 09:35:00
4:55 AM,74.5,73.6,97,29.93,5.0,Calm,Calm,-,N/A,,Clear,0,2013-07-08 09:55:00
5:15 AM,73.4,73.0,99,29.94,5.0,Calm,Calm,-,N/A,,Clear,0,2013-07-08 10:15:00
5:55 AM,72.1,71.6,98,29.94,5.0,Calm,Calm,-,N/A,,Scattered Clouds,0,2013-07-08 10:55:00
6:15 AM,72.5,71.4,96,29.94,7.0,Calm,Calm,-,N/A,,Clear,0,2013-07-08 11:15:00
6:35 AM,72.7,71.6,96,29.94,7.0,Calm,Calm,-,N/A,,Clear,0,2013-07-08 11:35:00
6:55 AM,72.5,71.1,95,29.94,7.0,Calm,Calm,-,N/A,,Clear,0,2013-07-08 11:55:00
7:15 AM,72.7,71.6,96,29.96,7.0,Calm,Calm,-,N/A,,Clear,0,2013-07-08 12:15:00
7:35 AM,73.4,72.1,96,29.96,7.0,Calm,Calm,-,N/A,,Clear,0,2013-07-08 12:35:00
7:55 AM,74.5,72.1,92,29.96,7.0,Calm,Calm,-,N/A,,Clear,0,2013-07-08 12:55:00
8:15 AM,75.4,72.9,92,29.97,7.0,Calm,Calm,-,N/A,,Clear,0,2013-07-08 13:15:00
8:35 AM,76.5,74.3,93,29.96,7.0,Calm,Calm,-,N/A,,Clear,0,2013-07-08 13:35:00
8:55 AM,79.9,72.9,79,29.97,10.0,Calm,Calm,-,N/A,,Clear,0,2013-07-08 13:55:00
9:15 AM,81.0,72.0,74,29.97,10.0,Calm,Calm,-,N/A,,Clear,0,2013-07-08 14:15:00
9:35 AM,80.6,71.8,74,29.98,10.0,SSW,3.5,-,N/A,,Clear,210,2013-07-08 14:35:00
9:55 AM,82.0,72.0,71,29.98,10.0,Calm,Calm,-,N/A,,Clear,0,2013-07-08 14:55:00
10:15 AM,83.3,71.1,66,29.98,10.0,SSW,3.5,-,N/A,,Clear,210,2013-07-08 15:15:00
10:35 AM,84.2,71.8,66,29.98,10.0,SSW,3.5,-,N/A,,Clear,200,2013-07-08 15:35:00
10:55 AM,85.3,72.0,64,29.97,10.0,SSW,5.8,-,N/A,,Clear,200,2013-07-08 15:55:00
11:15 AM,83.5,71.1,66,29.98,10.0,SW,4.6,-,N/A,,Clear,220,2013-07-08 16:15:00
11:35 AM,83.7,72.0,68,29.98,10.0,SSW,4.6,-,N/A,,Clear,210,2013-07-08 16:35:00
11:55 AM,85.3,71.8,64,29.98,10.0,South,8.1,-,N/A,,Clear,190,2013-07-08 16:55:00
12:15 PM,86.0,71.2,61,29.98,10.0,Calm,Calm,-,N/A,,Clear,0,2013-07-08 17:15:00
12:35 PM,85.3,70.9,62,29.99,10.0,SW,4.6,-,N/A,,Clear,220,2013-07-08 17:35:00
12:55 PM,84.0,70.9,64,29.98,10.0,SSW,4.6,-,N/A,,Clear,210,2013-07-08 17:55:00
1:15 PM,83.8,70.7,64,29.98,10.0,South,3.5,-,N/A,,Clear,190,2013-07-08 18:15:00
1:35 PM,84.2,70.7,64,29.98,10.0,Calm,Calm,-,N/A,,Clear,0,2013-07-08 18:35:00
1:55 PM,84.2,70.2,63,29.97,10.0,Calm,Calm,-,N/A,,Clear,0,2013-07-08 18:55:00
2:15 PM,85.3,71.1,62,29.97,10.0,Calm,Calm,-,N/A,,Clear,0,2013-07-08 19:15:00
2:35 PM,85.6,72.1,64,29.97,10.0,Calm,Calm,-,N/A,,Clear,0,2013-07-08 19:35:00
2:55 PM,85.1,71.6,64,29.97,10.0,NW,4.6,-,N/A,,Clear,320,2013-07-08 19:55:00
3:15 PM,85.5,72.5,65,29.96,10.0,Calm,Calm,-,N/A,,Clear,0,2013-07-08 20:15:00
3:35 PM,86.2,73.2,65,29.97,10.0,Calm,Calm,-,N/A,,Clear,0,2013-07-08 20:35:00
3:55 PM,86.9,73.6,64,29.96,10.0,Calm,Calm,-,N/A,,Clear,0,2013-07-08 20:55:00
4:15 PM,87.8,73.6,63,29.96,10.0,South,4.6,-,N/A,,Clear,170,2013-07-08 21:15:00
4:35 PM,88.0,72.5,60,29.96,10.0,South,5.8,-,N/A,,Clear,180,2013-07-08 21:35:00
4:55 PM,87.3,72.7,62,29.96,10.0,SSE,5.8,-,N/A,,Clear,150,2013-07-08 21:55:00
5:15 PM,86.0,72.7,64,29.96,10.0,SSE,5.8,-,N/A,,Clear,160,2013-07-08 22:15:00
5:35 PM,84.9,74.1,70,29.96,10.0,SSE,6.9,-,N/A,,Clear,160,2013-07-08 22:35:00
5:55 PM,84.4,73.8,70,29.96,10.0,SSE,4.6,-,N/A,,Clear,150,2013-07-08 22:55:00
6:15 PM,84.2,73.9,71,29.96,10.0,SSE,4.6,-,N/A,,Clear,150,2013-07-08 23:15:00
6:35 PM,83.8,73.8,72,29.94,10.0,SSE,6.9,-,N/A,,Scattered Clouds,150,2013-07-08 23:35:00
6:55 PM,84.0,73.6,71,29.94,10.0,SE,8.1,-,N/A,,Scattered Clouds,140,2013-07-08 23:55:00
7:15 PM,83.3,73.6,72,29.94,10.0,SE,6.9,-,N/A,,Scattered Clouds,130,2013-07-09 00:15:00
7:35 PM,83.3,73.6,72,29.93,10.0,ESE,8.1,-,N/A,,Scattered Clouds,120,2013-07-09 00:35:00
7:55 PM,83.1,74.5,75,29.93,10.0,ESE,4.6,-,N/A,,Scattered Clouds,110,2013-07-09 00:55:00
8:15 PM,82.4,74.3,76,29.92,10.0,ESE,5.8,-,N/A,,Scattered Clouds,110,2013-07-09 01:15:00
8:35 PM,81.3,74.3,79,29.92,10.0,ESE,5.8,-,N/A,,Scattered Clouds,110,2013-07-09 01:35:00
8:55 PM,81.5,74.3,79,29.92,10.0,ESE,5.8,-,N/A,,Mostly Cloudy,110,2013-07-09 01:55:00
9:15 PM,81.0,74.3,80,29.93,10.0,ESE,5.8,-,N/A,,Scattered Clouds,120,2013-07-09 02:15:00
9:35 PM,80.8,74.3,81,29.93,10.0,ESE,3.5,-,N/A,,Scattered Clouds,110,2013-07-09 02:35:00
9:55 PM,79.9,74.5,83,29.94,10.0,East,5.8,-,N/A,Rain,Light Rain,100,2013-07-09 02:55:00
10:15 PM,79.3,75.2,87,29.93,10.0,East,4.6,-,N/A,,Scattered Clouds,90,2013-07-09 03:15:00
10:35 PM,78.8,75.2,89,29.93,10.0,East,5.8,-,N/A,,Clear,80,2013-07-09 03:35:00
10:55 PM,78.8,74.5,87,29.92,10.0,East,6.9,-,N/A,,Clear,90,2013-07-09 03:55:00
11:15 PM,78.8,74.3,86,29.92,10.0,East,5.8,-,N/A,,Clear,80,2013-07-09 04:15:00
11:35 PM,78.1,74.3,88,29.91,10.0,East,5.8,-,N/A,,Clear,90,2013-07-09 04:35:00
11:55 PM,77.9,74.3,89,29.91,10.0,ESE,6.9,-,N/A,,Clear,110,2013-07-09 04:55:00